sensor_id;sensor_type;location;lat;lon;timestamp;temperature;humidity
19085;DHT22;9675;51.538;6.728;2022-07-12T00:01:39;21.90;99.90
19085;DHT22;9675;51.538;6.728;2022-07-12T00:04:06;21.90;99.90
19085;DHT22;9675;51.538;6.728;2022-07-12T00:06:33;21.90;99.90
19085;DHT22;9675;51.538;6.728;2022-07-12T00:09:01;21.80;99.90
19085;DHT22;9675;51.538;6.728;2022-07-12T00:11:28;21.80;99.90
19085;DHT22;9675;51.538;6.728;2022-07-12T00:13:56;21.80;99.90
19085;DHT22;9675;51.538;6.728;2022-07-12T00:16:25;21.70;99.90
19085;DHT22;9675;51.538;6.728;2022-07-12T00:18:52;21.70;99.90
19085;DHT22;9675;51.538;6.728;2022-07-12T00:21:19;21.70;99.90
19085;DHT22;9675;51.538;6.728;2022-07-12T00:23:46;21.60;99.90
19085;DHT22;9675;51.538;6.728;2022-07-12T00:26:14;21.60;99.90
19085;DHT22;9675;51.538;6.728;2022-07-12T00:28:41;21.60;99.90
19085;DHT22;9675;51.538;6.728;2022-07-12T00:31:08;21.60;99.90
19085;DHT22;9675;51.538;6.728;2022-07-12T00:33:37;21.50;99.90
19085;DHT22;9675;51.538;6.728;2022-07-12T00:36:05;21.50;99.90
19085;DHT22;9675;51.538;6.728;2022-07-12T00:38:32;21.40;99.90
19085;DHT22;9675;51.538;6.728;2022-07-12T00:41:00;21.40;99.90
19085;DHT22;9675;51.538;6.728;2022-07-12T00:43:27;21.40;99.90
19085;DHT22;9675;51.538;6.728;2022-07-12T00:45:54;21.40;99.90
19085;DHT22;9675;51.538;6.728;2022-07-12T00:48:22;21.30;99.90
19085;DHT22;9675;51.538;6.728;2022-07-12T00:50:51;21.30;99.90
19085;DHT22;9675;51.538;6.728;2022-07-12T00:53:18;21.30;99.90
19085;DHT22;9675;51.538;6.728;2022-07-12T00:55:52;21.20;99.90
19085;DHT22;9675;51.538;6.728;2022-07-12T00:58:21;21.20;99.90
19085;DHT22;9675;51.538;6.728;2022-07-12T01:00:49;21.20;99.90
19085;DHT22;9675;51.538;6.728;2022-07-12T01:03:17;21.20;99.90
19085;DHT22;9675;51.538;6.728;2022-07-12T01:05:46;21.20;99.90
19085;DHT22;9675;51.538;6.728;2022-07-12T01:08:15;21.10;99.90
19085;DHT22;9675;51.538;6.728;2022-07-12T01:10:44;21.10;99.90
19085;DHT22;9675;51.538;6.728;2022-07-12T01:13:11;21.10;99.90
19085;DHT22;9675;51.538;6.728;2022-07-12T01:15:40;21.00;99.90
19085;DHT22;9675;51.538;6.728;2022-07-12T01:18:09;21.00;99.90
19085;DHT22;9675;51.538;6.728;2022-07-12T01:20:37;21.00;99.90
19085;DHT22;9675;51.538;6.728;2022-07-12T01:23:06;20.90;99.90
19085;DHT22;9675;51.538;6.728;2022-07-12T01:25:35;20.90;99.90
19085;DHT22;9675;51.538;6.728;2022-07-12T01:28:02;20.90;99.90
19085;DHT22;9675;51.538;6.728;2022-07-12T01:30:29;20.80;99.90
19085;DHT22;9675;51.538;6.728;2022-07-12T01:32:57;20.80;99.90
19085;DHT22;9675;51.538;6.728;2022-07-12T01:35:26;20.80;99.90
19085;DHT22;9675;51.538;6.728;2022-07-12T01:37:55;20.80;99.90
19085;DHT22;9675;51.538;6.728;2022-07-12T01:40:24;20.70;99.90
19085;DHT22;9675;51.538;6.728;2022-07-12T01:42:53;20.70;99.90
19085;DHT22;9675;51.538;6.728;2022-07-12T01:45:20;20.70;99.90
19085;DHT22;9675;51.538;6.728;2022-07-12T01:47:47;20.70;99.90
19085;DHT22;9675;51.538;6.728;2022-07-12T01:50:15;20.70;99.90
19085;DHT22;9675;51.538;6.728;2022-07-12T01:52:43;20.60;99.90
19085;DHT22;9675;51.538;6.728;2022-07-12T01:55:11;20.60;99.90
19085;DHT22;9675;51.538;6.728;2022-07-12T01:57:41;20.60;99.90
19085;DHT22;9675;51.538;6.728;2022-07-12T02:00:11;20.50;99.90
19085;DHT22;9675;51.538;6.728;2022-07-12T02:02:40;20.50;99.90
19085;DHT22;9675;51.538;6.728;2022-07-12T02:05:08;20.50;99.90
19085;DHT22;9675;51.538;6.728;2022-07-12T02:07:35;20.50;99.90
19085;DHT22;9675;51.538;6.728;2022-07-12T02:10:05;20.50;99.90
19085;DHT22;9675;51.538;6.728;2022-07-12T02:12:34;20.40;99.90
19085;DHT22;9675;51.538;6.728;2022-07-12T02:15:05;20.40;99.90
19085;DHT22;9675;51.538;6.728;2022-07-12T02:17:32;20.30;99.90
19085;DHT22;9675;51.538;6.728;2022-07-12T02:20:00;20.30;99.90
19085;DHT22;9675;51.538;6.728;2022-07-12T02:22:27;20.30;99.90
19085;DHT22;9675;51.538;6.728;2022-07-12T02:24:54;20.30;99.90
19085;DHT22;9675;51.538;6.728;2022-07-12T02:27:22;20.20;99.90
19085;DHT22;9675;51.538;6.728;2022-07-12T02:29:49;20.20;99.90
19085;DHT22;9675;51.538;6.728;2022-07-12T02:32:17;20.20;99.90
19085;DHT22;9675;51.538;6.728;2022-07-12T02:34:44;20.20;99.90
19085;DHT22;9675;51.538;6.728;2022-07-12T02:37:11;20.10;99.90
19085;DHT22;9675;51.538;6.728;2022-07-12T02:39:40;20.10;99.90
19085;DHT22;9675;51.538;6.728;2022-07-12T02:42:07;20.10;99.90
19085;DHT22;9675;51.538;6.728;2022-07-12T02:44:34;20.10;99.90
19085;DHT22;9675;51.538;6.728;2022-07-12T02:47:01;20.00;99.90
19085;DHT22;9675;51.538;6.728;2022-07-12T02:49:29;20.00;99.90
19085;DHT22;9675;51.538;6.728;2022-07-12T02:51:58;20.00;99.90
19085;DHT22;9675;51.538;6.728;2022-07-12T02:54:25;19.90;99.90
19085;DHT22;9675;51.538;6.728;2022-07-12T02:56:52;19.90;99.90
19085;DHT22;9675;51.538;6.728;2022-07-12T02:59:19;19.90;99.90
19085;DHT22;9675;51.538;6.728;2022-07-12T03:01:46;19.90;99.90
19085;DHT22;9675;51.538;6.728;2022-07-12T03:04:14;19.80;99.90
19085;DHT22;9675;51.538;6.728;2022-07-12T03:06:42;19.80;99.90
19085;DHT22;9675;51.538;6.728;2022-07-12T03:09:09;19.80;99.90
19085;DHT22;9675;51.538;6.728;2022-07-12T03:11:36;19.70;99.90
19085;DHT22;9675;51.538;6.728;2022-07-12T03:14:03;19.70;99.90
19085;DHT22;9675;51.538;6.728;2022-07-12T03:16:30;19.70;99.90
19085;DHT22;9675;51.538;6.728;2022-07-12T03:18:57;19.70;99.90
19085;DHT22;9675;51.538;6.728;2022-07-12T03:21:24;19.70;99.90
19085;DHT22;9675;51.538;6.728;2022-07-12T03:23:53;19.70;99.90
19085;DHT22;9675;51.538;6.728;2022-07-12T03:26:20;19.60;99.90
19085;DHT22;9675;51.538;6.728;2022-07-12T03:28:48;19.60;99.90
19085;DHT22;9675;51.538;6.728;2022-07-12T03:31:15;19.60;99.90
19085;DHT22;9675;51.538;6.728;2022-07-12T03:33:42;19.60;99.90
19085;DHT22;9675;51.538;6.728;2022-07-12T03:36:09;19.50;99.90
19085;DHT22;9675;51.538;6.728;2022-07-12T03:38:36;19.50;99.90
19085;DHT22;9675;51.538;6.728;2022-07-12T03:41:06;19.50;99.90
19085;DHT22;9675;51.538;6.728;2022-07-12T03:43:33;19.40;99.90
19085;DHT22;9675;51.538;6.728;2022-07-12T03:46:00;19.40;99.90
19085;DHT22;9675;51.538;6.728;2022-07-12T03:48:27;19.40;99.90
19085;DHT22;9675;51.538;6.728;2022-07-12T03:50:54;19.40;99.90
19085;DHT22;9675;51.538;6.728;2022-07-12T03:53:22;19.30;99.90
19085;DHT22;9675;51.538;6.728;2022-07-12T03:55:49;19.30;99.90
19085;DHT22;9675;51.538;6.728;2022-07-12T03:58:17;19.30;99.90
19085;DHT22;9675;51.538;6.728;2022-07-12T04:00:44;19.30;99.90
19085;DHT22;9675;51.538;6.728;2022-07-12T04:03:12;19.30;99.90
19085;DHT22;9675;51.538;6.728;2022-07-12T04:05:39;19.10;99.90
19085;DHT22;9675;51.538;6.728;2022-07-12T04:08:06;19.10;99.90
19085;DHT22;9675;51.538;6.728;2022-07-12T04:10:33;19.10;99.90
19085;DHT22;9675;51.538;6.728;2022-07-12T04:13:00;19.10;99.90
19085;DHT22;9675;51.538;6.728;2022-07-12T04:15:29;19.10;99.90
19085;DHT22;9675;51.538;6.728;2022-07-12T04:17:56;19.10;99.90
19085;DHT22;9675;51.538;6.728;2022-07-12T04:20:23;19.10;99.90
19085;DHT22;9675;51.538;6.728;2022-07-12T04:22:50;19.10;99.90
19085;DHT22;9675;51.538;6.728;2022-07-12T04:25:17;19.10;99.90
19085;DHT22;9675;51.538;6.728;2022-07-12T04:27:44;19.10;99.90
19085;DHT22;9675;51.538;6.728;2022-07-12T04:30:12;19.00;99.90
19085;DHT22;9675;51.538;6.728;2022-07-12T04:32:40;19.00;99.90
19085;DHT22;9675;51.538;6.728;2022-07-12T04:35:07;19.00;99.90
19085;DHT22;9675;51.538;6.728;2022-07-12T04:37:35;19.00;99.90
19085;DHT22;9675;51.538;6.728;2022-07-12T04:40:02;19.00;99.90
19085;DHT22;9675;51.538;6.728;2022-07-12T04:42:30;19.00;99.90
19085;DHT22;9675;51.538;6.728;2022-07-12T04:44:57;19.00;99.90
19085;DHT22;9675;51.538;6.728;2022-07-12T04:47:24;19.00;99.90
19085;DHT22;9675;51.538;6.728;2022-07-12T04:49:52;19.00;99.90
19085;DHT22;9675;51.538;6.728;2022-07-12T04:52:19;19.00;99.90
19085;DHT22;9675;51.538;6.728;2022-07-12T04:54:47;19.00;99.90
19085;DHT22;9675;51.538;6.728;2022-07-12T04:57:14;19.00;99.90
19085;DHT22;9675;51.538;6.728;2022-07-12T04:59:41;18.90;99.90
19085;DHT22;9675;51.538;6.728;2022-07-12T05:02:08;19.00;99.90
19085;DHT22;9675;51.538;6.728;2022-07-12T05:04:35;19.00;99.90
19085;DHT22;9675;51.538;6.728;2022-07-12T05:07:04;19.00;99.90
19085;DHT22;9675;51.538;6.728;2022-07-12T05:09:31;19.00;99.90
19085;DHT22;9675;51.538;6.728;2022-07-12T05:11:58;18.90;99.90
19085;DHT22;9675;51.538;6.728;2022-07-12T05:14:25;18.90;99.90
19085;DHT22;9675;51.538;6.728;2022-07-12T05:16:52;18.80;99.90
19085;DHT22;9675;51.538;6.728;2022-07-12T05:19:19;18.80;99.90
19085;DHT22;9675;51.538;6.728;2022-07-12T05:21:47;18.80;99.90
19085;DHT22;9675;51.538;6.728;2022-07-12T05:24:15;18.80;99.90
19085;DHT22;9675;51.538;6.728;2022-07-12T05:26:43;18.80;99.90
19085;DHT22;9675;51.538;6.728;2022-07-12T05:29:10;18.80;99.90
19085;DHT22;9675;51.538;6.728;2022-07-12T05:31:37;18.80;99.90
19085;DHT22;9675;51.538;6.728;2022-07-12T05:34:04;18.80;99.90
19085;DHT22;9675;51.538;6.728;2022-07-12T05:36:31;18.70;99.90
19085;DHT22;9675;51.538;6.728;2022-07-12T05:38:58;18.70;99.90
19085;DHT22;9675;51.538;6.728;2022-07-12T05:41:26;18.70;99.90
19085;DHT22;9675;51.538;6.728;2022-07-12T05:43:54;18.70;99.90
19085;DHT22;9675;51.538;6.728;2022-07-12T05:46:21;18.70;99.90
19085;DHT22;9675;51.538;6.728;2022-07-12T05:48:48;18.70;99.90
19085;DHT22;9675;51.538;6.728;2022-07-12T05:51:15;18.70;99.90
19085;DHT22;9675;51.538;6.728;2022-07-12T05:53:59;18.70;99.90
19085;DHT22;9675;51.538;6.728;2022-07-12T05:56:29;18.70;99.90
19085;DHT22;9675;51.538;6.728;2022-07-12T05:58:56;18.70;99.90
19085;DHT22;9675;51.538;6.728;2022-07-12T06:01:23;18.70;99.90
19085;DHT22;9675;51.538;6.728;2022-07-12T06:03:50;18.70;99.90
19085;DHT22;9675;51.538;6.728;2022-07-12T06:06:18;18.70;99.90
19085;DHT22;9675;51.538;6.728;2022-07-12T06:08:45;18.80;99.90
19085;DHT22;9675;51.538;6.728;2022-07-12T06:11:12;18.80;99.90
19085;DHT22;9675;51.538;6.728;2022-07-12T06:13:40;18.80;99.90
19085;DHT22;9675;51.538;6.728;2022-07-12T06:16:07;18.80;99.90
19085;DHT22;9675;51.538;6.728;2022-07-12T06:18:36;18.80;99.90
19085;DHT22;9675;51.538;6.728;2022-07-12T06:21:03;18.90;99.90
19085;DHT22;9675;51.538;6.728;2022-07-12T06:23:31;18.90;99.90
19085;DHT22;9675;51.538;6.728;2022-07-12T06:25:58;18.90;99.90
19085;DHT22;9675;51.538;6.728;2022-07-12T06:28:25;19.00;99.90
19085;DHT22;9675;51.538;6.728;2022-07-12T06:30:53;19.00;99.90
19085;DHT22;9675;51.538;6.728;2022-07-12T06:33:21;19.00;99.90
19085;DHT22;9675;51.538;6.728;2022-07-12T06:35:48;19.00;99.90
19085;DHT22;9675;51.538;6.728;2022-07-12T06:38:15;19.10;99.90
19085;DHT22;9675;51.538;6.728;2022-07-12T06:40:42;19.10;99.90
19085;DHT22;9675;51.538;6.728;2022-07-12T06:43:10;19.10;99.90
19085;DHT22;9675;51.538;6.728;2022-07-12T06:45:39;19.20;99.90
19085;DHT22;9675;51.538;6.728;2022-07-12T06:48:08;19.20;99.90
19085;DHT22;9675;51.538;6.728;2022-07-12T06:50:35;19.30;99.90
19085;DHT22;9675;51.538;6.728;2022-07-12T06:53:02;19.30;99.90
19085;DHT22;9675;51.538;6.728;2022-07-12T06:55:30;19.40;99.90
19085;DHT22;9675;51.538;6.728;2022-07-12T06:57:57;19.50;99.90
19085;DHT22;9675;51.538;6.728;2022-07-12T07:00:24;19.50;99.90
19085;DHT22;9675;51.538;6.728;2022-07-12T07:02:51;19.50;99.90
19085;DHT22;9675;51.538;6.728;2022-07-12T07:05:20;19.60;99.90
19085;DHT22;9675;51.538;6.728;2022-07-12T07:07:47;19.70;99.90
19085;DHT22;9675;51.538;6.728;2022-07-12T07:10:14;19.70;99.90
19085;DHT22;9675;51.538;6.728;2022-07-12T07:12:41;19.80;99.90
19085;DHT22;9675;51.538;6.728;2022-07-12T07:15:09;19.80;99.90
19085;DHT22;9675;51.538;6.728;2022-07-12T07:17:39;19.90;99.90
19085;DHT22;9675;51.538;6.728;2022-07-12T07:20:07;20.00;99.90
19085;DHT22;9675;51.538;6.728;2022-07-12T07:22:36;20.10;99.90
19085;DHT22;9675;51.538;6.728;2022-07-12T07:25:04;20.10;99.90
19085;DHT22;9675;51.538;6.728;2022-07-12T07:27:32;20.20;99.90
19085;DHT22;9675;51.538;6.728;2022-07-12T07:29:59;20.30;99.90
19085;DHT22;9675;51.538;6.728;2022-07-12T07:32:44;20.30;99.90
19085;DHT22;9675;51.538;6.728;2022-07-12T07:35:11;20.40;99.90
19085;DHT22;9675;51.538;6.728;2022-07-12T07:37:40;20.50;99.90
19085;DHT22;9675;51.538;6.728;2022-07-12T07:40:08;20.50;99.90
19085;DHT22;9675;51.538;6.728;2022-07-12T07:42:36;20.60;99.90
19085;DHT22;9675;51.538;6.728;2022-07-12T07:45:03;20.70;99.90
19085;DHT22;9675;51.538;6.728;2022-07-12T07:47:32;20.80;99.90
19085;DHT22;9675;51.538;6.728;2022-07-12T07:50:09;20.80;99.90
19085;DHT22;9675;51.538;6.728;2022-07-12T07:52:36;20.90;99.90
19085;DHT22;9675;51.538;6.728;2022-07-12T07:55:05;21.00;99.90
19085;DHT22;9675;51.538;6.728;2022-07-12T07:57:33;21.10;99.90
19085;DHT22;9675;51.538;6.728;2022-07-12T08:00:00;21.10;99.90
19085;DHT22;9675;51.538;6.728;2022-07-12T08:02:27;21.20;99.90
19085;DHT22;9675;51.538;6.728;2022-07-12T08:04:54;21.30;99.90
19085;DHT22;9675;51.538;6.728;2022-07-12T08:07:21;21.40;99.90
19085;DHT22;9675;51.538;6.728;2022-07-12T08:09:48;21.50;99.90
19085;DHT22;9675;51.538;6.728;2022-07-12T08:12:16;21.60;99.90
19085;DHT22;9675;51.538;6.728;2022-07-12T08:14:44;21.70;99.90
19085;DHT22;9675;51.538;6.728;2022-07-12T08:17:11;21.80;99.90
19085;DHT22;9675;51.538;6.728;2022-07-12T08:19:38;21.90;99.90
19085;DHT22;9675;51.538;6.728;2022-07-12T08:22:05;21.90;99.90
19085;DHT22;9675;51.538;6.728;2022-07-12T08:24:32;22.10;99.90
19085;DHT22;9675;51.538;6.728;2022-07-12T08:26:59;22.20;99.90
19085;DHT22;9675;51.538;6.728;2022-07-12T08:29:28;22.30;99.90
19085;DHT22;9675;51.538;6.728;2022-07-12T08:31:55;22.30;99.90
19085;DHT22;9675;51.538;6.728;2022-07-12T08:34:22;22.40;99.90
19085;DHT22;9675;51.538;6.728;2022-07-12T08:36:49;22.50;99.90
19085;DHT22;9675;51.538;6.728;2022-07-12T08:39:16;22.60;99.90
19085;DHT22;9675;51.538;6.728;2022-07-12T08:41:43;22.70;99.90
19085;DHT22;9675;51.538;6.728;2022-07-12T08:44:10;22.80;99.90
19085;DHT22;9675;51.538;6.728;2022-07-12T08:46:39;22.90;99.90
19085;DHT22;9675;51.538;6.728;2022-07-12T08:49:06;23.00;99.90
19085;DHT22;9675;51.538;6.728;2022-07-12T08:51:34;23.00;99.90
19085;DHT22;9675;51.538;6.728;2022-07-12T08:54:09;23.20;99.90
19085;DHT22;9675;51.538;6.728;2022-07-12T08:56:39;23.20;99.90
19085;DHT22;9675;51.538;6.728;2022-07-12T08:59:14;23.30;99.90
19085;DHT22;9675;51.538;6.728;2022-07-12T09:01:45;23.50;99.90
19085;DHT22;9675;51.538;6.728;2022-07-12T09:04:16;23.60;99.90
19085;DHT22;9675;51.538;6.728;2022-07-12T09:06:45;23.70;99.90
19085;DHT22;9675;51.538;6.728;2022-07-12T09:09:25;23.70;99.90
19085;DHT22;9675;51.538;6.728;2022-07-12T09:11:54;23.90;99.90
19085;DHT22;9675;51.538;6.728;2022-07-12T09:14:21;24.00;99.90
19085;DHT22;9675;51.538;6.728;2022-07-12T09:17:00;24.20;99.90
19085;DHT22;9675;51.538;6.728;2022-07-12T09:19:29;24.20;99.90
19085;DHT22;9675;51.538;6.728;2022-07-12T09:21:57;24.30;99.90
19085;DHT22;9675;51.538;6.728;2022-07-12T09:24:26;24.40;99.90
19085;DHT22;9675;51.538;6.728;2022-07-12T09:26:57;24.50;99.90
19085;DHT22;9675;51.538;6.728;2022-07-12T09:29:27;24.60;99.90
19085;DHT22;9675;51.538;6.728;2022-07-12T09:31:54;24.70;99.90
19085;DHT22;9675;51.538;6.728;2022-07-12T09:34:40;24.80;99.90
19085;DHT22;9675;51.538;6.728;2022-07-12T09:37:25;24.90;99.90
19085;DHT22;9675;51.538;6.728;2022-07-12T09:39:53;25.00;99.90
19085;DHT22;9675;51.538;6.728;2022-07-12T09:42:21;25.10;99.90
19085;DHT22;9675;51.538;6.728;2022-07-12T09:44:50;25.20;99.90
19085;DHT22;9675;51.538;6.728;2022-07-12T09:47:20;25.30;99.90
19085;DHT22;9675;51.538;6.728;2022-07-12T09:49:50;25.50;99.90
19085;DHT22;9675;51.538;6.728;2022-07-12T09:52:21;25.50;99.90
19085;DHT22;9675;51.538;6.728;2022-07-12T09:54:50;25.70;99.90
19085;DHT22;9675;51.538;6.728;2022-07-12T09:57:21;25.80;99.90
19085;DHT22;9675;51.538;6.728;2022-07-12T09:59:53;25.90;99.90
19085;DHT22;9675;51.538;6.728;2022-07-12T10:02:21;26.00;99.90
19085;DHT22;9675;51.538;6.728;2022-07-12T10:04:51;26.10;99.90
19085;DHT22;9675;51.538;6.728;2022-07-12T10:07:19;26.20;99.90
19085;DHT22;9675;51.538;6.728;2022-07-12T10:09:47;26.30;99.90
19085;DHT22;9675;51.538;6.728;2022-07-12T10:12:19;26.30;99.90
19085;DHT22;9675;51.538;6.728;2022-07-12T10:14:53;26.40;99.90
19085;DHT22;9675;51.538;6.728;2022-07-12T10:17:26;26.50;99.90
19085;DHT22;9675;51.538;6.728;2022-07-12T10:20:17;26.60;99.90
19085;DHT22;9675;51.538;6.728;2022-07-12T10:22:48;26.70;99.90
19085;DHT22;9675;51.538;6.728;2022-07-12T10:25:32;26.80;99.90
19085;DHT22;9675;51.538;6.728;2022-07-12T10:28:00;26.90;99.90
19085;DHT22;9675;51.538;6.728;2022-07-12T10:30:29;27.00;99.90
19085;DHT22;9675;51.538;6.728;2022-07-12T10:32:58;27.10;99.90
19085;DHT22;9675;51.538;6.728;2022-07-12T10:35:28;27.20;99.90
19085;DHT22;9675;51.538;6.728;2022-07-12T10:38:19;27.30;99.90
19085;DHT22;9675;51.538;6.728;2022-07-12T10:40:48;27.40;99.90
19085;DHT22;9675;51.538;6.728;2022-07-12T10:43:19;27.50;99.90
19085;DHT22;9675;51.538;6.728;2022-07-12T10:46:16;27.70;99.90
19085;DHT22;9675;51.538;6.728;2022-07-12T10:49:25;27.80;99.90
19085;DHT22;9675;51.538;6.728;2022-07-12T10:52:14;27.90;99.90
19085;DHT22;9675;51.538;6.728;2022-07-12T10:57:49;28.10;99.90
19085;DHT22;9675;51.538;6.728;2022-07-12T11:00:18;28.20;99.90
19085;DHT22;9675;51.538;6.728;2022-07-12T11:02:48;28.30;99.90
19085;DHT22;9675;51.538;6.728;2022-07-12T11:05:15;28.40;99.90
19085;DHT22;9675;51.538;6.728;2022-07-12T11:07:44;28.50;99.90
19085;DHT22;9675;51.538;6.728;2022-07-12T11:10:12;28.60;99.90
19085;DHT22;9675;51.538;6.728;2022-07-12T11:12:40;28.60;99.90
19085;DHT22;9675;51.538;6.728;2022-07-12T11:15:08;28.70;99.90
19085;DHT22;9675;51.538;6.728;2022-07-12T11:17:36;28.80;99.90
19085;DHT22;9675;51.538;6.728;2022-07-12T11:20:08;28.90;99.90
19085;DHT22;9675;51.538;6.728;2022-07-12T11:22:41;29.10;99.90
19085;DHT22;9675;51.538;6.728;2022-07-12T11:25:12;29.20;99.90
19085;DHT22;9675;51.538;6.728;2022-07-12T11:27:39;29.20;99.90
19085;DHT22;9675;51.538;6.728;2022-07-12T11:30:08;29.30;99.90
19085;DHT22;9675;51.538;6.728;2022-07-12T11:32:37;29.40;99.90
19085;DHT22;9675;51.538;6.728;2022-07-12T11:35:17;29.50;99.90
19085;DHT22;9675;51.538;6.728;2022-07-12T11:37:50;29.70;99.90
19085;DHT22;9675;51.538;6.728;2022-07-12T11:40:24;29.70;99.90
19085;DHT22;9675;51.538;6.728;2022-07-12T11:42:55;29.80;99.90
19085;DHT22;9675;51.538;6.728;2022-07-12T11:45:24;29.90;99.90
19085;DHT22;9675;51.538;6.728;2022-07-12T11:47:52;29.90;99.90
19085;DHT22;9675;51.538;6.728;2022-07-12T11:50:20;30.00;99.90
19085;DHT22;9675;51.538;6.728;2022-07-12T11:52:47;30.10;99.90
19085;DHT22;9675;51.538;6.728;2022-07-12T11:55:15;30.20;99.90
19085;DHT22;9675;51.538;6.728;2022-07-12T11:57:43;30.30;99.90
19085;DHT22;9675;51.538;6.728;2022-07-12T12:00:18;30.40;99.90
19085;DHT22;9675;51.538;6.728;2022-07-12T12:02:51;30.50;99.90
19085;DHT22;9675;51.538;6.728;2022-07-12T12:05:19;30.60;99.90
19085;DHT22;9675;51.538;6.728;2022-07-12T12:07:47;30.70;99.90
19085;DHT22;9675;51.538;6.728;2022-07-12T12:10:15;30.80;99.90
19085;DHT22;9675;51.538;6.728;2022-07-12T12:12:46;30.90;99.90
19085;DHT22;9675;51.538;6.728;2022-07-12T12:15:16;30.90;99.90
19085;DHT22;9675;51.538;6.728;2022-07-12T12:17:46;31.00;99.90
19085;DHT22;9675;51.538;6.728;2022-07-12T12:20:21;31.10;99.90
19085;DHT22;9675;51.538;6.728;2022-07-12T12:22:50;31.10;99.90
19085;DHT22;9675;51.538;6.728;2022-07-12T12:25:20;31.20;99.90
19085;DHT22;9675;51.538;6.728;2022-07-12T12:27:53;31.30;99.90
19085;DHT22;9675;51.538;6.728;2022-07-12T12:30:21;31.30;99.90
19085;DHT22;9675;51.538;6.728;2022-07-12T12:32:50;31.40;99.90
19085;DHT22;9675;51.538;6.728;2022-07-12T12:35:21;31.40;99.90
19085;DHT22;9675;51.538;6.728;2022-07-12T12:37:54;31.40;99.90
19085;DHT22;9675;51.538;6.728;2022-07-12T12:40:23;31.50;99.90
19085;DHT22;9675;51.538;6.728;2022-07-12T12:43:04;31.60;99.90
19085;DHT22;9675;51.538;6.728;2022-07-12T12:45:33;31.70;99.90
19085;DHT22;9675;51.538;6.728;2022-07-12T12:48:03;31.70;99.90
19085;DHT22;9675;51.538;6.728;2022-07-12T12:50:39;31.70;99.90
19085;DHT22;9675;51.538;6.728;2022-07-12T12:53:13;31.80;99.90
19085;DHT22;9675;51.538;6.728;2022-07-12T12:55:43;31.80;99.90
19085;DHT22;9675;51.538;6.728;2022-07-12T12:58:14;31.90;99.90
19085;DHT22;9675;51.538;6.728;2022-07-12T13:00:43;32.00;99.90
19085;DHT22;9675;51.538;6.728;2022-07-12T13:03:13;32.10;99.90
19085;DHT22;9675;51.538;6.728;2022-07-12T13:05:41;32.20;99.90
19085;DHT22;9675;51.538;6.728;2022-07-12T13:08:09;32.30;99.90
19085;DHT22;9675;51.538;6.728;2022-07-12T13:10:39;32.30;99.90
19085;DHT22;9675;51.538;6.728;2022-07-12T13:13:08;32.40;99.90
19085;DHT22;9675;51.538;6.728;2022-07-12T13:15:38;32.40;99.90
19085;DHT22;9675;51.538;6.728;2022-07-12T13:18:06;32.40;99.90
19085;DHT22;9675;51.538;6.728;2022-07-12T13:20:34;32.50;99.90
19085;DHT22;9675;51.538;6.728;2022-07-12T13:23:01;32.60;99.90
19085;DHT22;9675;51.538;6.728;2022-07-12T13:25:28;32.60;99.90
19085;DHT22;9675;51.538;6.728;2022-07-12T13:27:56;32.60;99.90
19085;DHT22;9675;51.538;6.728;2022-07-12T13:30:24;32.70;99.90
19085;DHT22;9675;51.538;6.728;2022-07-12T13:32:52;32.70;99.90
19085;DHT22;9675;51.538;6.728;2022-07-12T13:35:19;32.80;99.90
19085;DHT22;9675;51.538;6.728;2022-07-12T13:37:46;32.70;99.90
19085;DHT22;9675;51.538;6.728;2022-07-12T13:40:14;32.70;99.90
19085;DHT22;9675;51.538;6.728;2022-07-12T13:42:43;32.80;99.90
19085;DHT22;9675;51.538;6.728;2022-07-12T13:45:13;32.80;99.90
19085;DHT22;9675;51.538;6.728;2022-07-12T13:47:42;32.90;99.90
19085;DHT22;9675;51.538;6.728;2022-07-12T13:50:13;32.90;99.90
19085;DHT22;9675;51.538;6.728;2022-07-12T13:52:42;33.00;99.90
19085;DHT22;9675;51.538;6.728;2022-07-12T13:55:12;33.00;99.90
19085;DHT22;9675;51.538;6.728;2022-07-12T13:57:42;33.00;99.90
19085;DHT22;9675;51.538;6.728;2022-07-12T14:00:11;33.10;99.90
19085;DHT22;9675;51.538;6.728;2022-07-12T14:02:42;33.20;99.90
19085;DHT22;9675;51.538;6.728;2022-07-12T14:05:13;33.20;99.90
19085;DHT22;9675;51.538;6.728;2022-07-12T14:07:41;33.10;99.90
19085;DHT22;9675;51.538;6.728;2022-07-12T14:10:11;33.10;99.90
19085;DHT22;9675;51.538;6.728;2022-07-12T14:12:39;33.20;99.90
19085;DHT22;9675;51.538;6.728;2022-07-12T14:15:07;33.20;99.90
19085;DHT22;9675;51.538;6.728;2022-07-12T14:17:47;33.20;99.90
19085;DHT22;9675;51.538;6.728;2022-07-12T14:20:18;33.20;99.90
19085;DHT22;9675;51.538;6.728;2022-07-12T14:22:47;33.20;99.90
19085;DHT22;9675;51.538;6.728;2022-07-12T14:25:15;33.20;99.90
19085;DHT22;9675;51.538;6.728;2022-07-12T14:27:43;33.20;99.90
19085;DHT22;9675;51.538;6.728;2022-07-12T14:30:12;33.20;99.90
19085;DHT22;9675;51.538;6.728;2022-07-12T14:32:40;33.20;99.90
19085;DHT22;9675;51.538;6.728;2022-07-12T14:35:09;33.20;99.90
19085;DHT22;9675;51.538;6.728;2022-07-12T14:37:38;33.20;99.90
19085;DHT22;9675;51.538;6.728;2022-07-12T14:40:08;33.20;99.90
19085;DHT22;9675;51.538;6.728;2022-07-12T14:42:36;33.10;99.90
19085;DHT22;9675;51.538;6.728;2022-07-12T14:45:04;33.20;99.90
19085;DHT22;9675;51.538;6.728;2022-07-12T14:47:31;33.10;99.90
19085;DHT22;9675;51.538;6.728;2022-07-12T14:49:59;33.10;99.90
19085;DHT22;9675;51.538;6.728;2022-07-12T14:52:27;33.00;99.90
19085;DHT22;9675;51.538;6.728;2022-07-12T14:54:56;33.10;99.90
19085;DHT22;9675;51.538;6.728;2022-07-12T14:57:23;33.10;99.90
19085;DHT22;9675;51.538;6.728;2022-07-12T14:59:50;33.10;99.90
19085;DHT22;9675;51.538;6.728;2022-07-12T15:02:19;33.10;99.90
19085;DHT22;9675;51.538;6.728;2022-07-12T15:04:47;33.20;99.90
19085;DHT22;9675;51.538;6.728;2022-07-12T15:07:14;33.20;99.90
19085;DHT22;9675;51.538;6.728;2022-07-12T15:09:41;33.20;99.90
19085;DHT22;9675;51.538;6.728;2022-07-12T15:12:10;33.10;99.90
19085;DHT22;9675;51.538;6.728;2022-07-12T15:14:37;33.10;99.90
19085;DHT22;9675;51.538;6.728;2022-07-12T15:17:05;33.00;99.80
19085;DHT22;9675;51.538;6.728;2022-07-12T15:19:32;33.10;99.90
19085;DHT22;9675;51.538;6.728;2022-07-12T15:21:59;33.20;99.90
19085;DHT22;9675;51.538;6.728;2022-07-12T15:24:26;33.20;99.90
19085;DHT22;9675;51.538;6.728;2022-07-12T15:26:54;33.20;99.90
19085;DHT22;9675;51.538;6.728;2022-07-12T15:29:23;33.10;99.90
19085;DHT22;9675;51.538;6.728;2022-07-12T15:31:50;33.10;99.90
19085;DHT22;9675;51.538;6.728;2022-07-12T15:34:17;33.20;99.90
19085;DHT22;9675;51.538;6.728;2022-07-12T15:36:45;33.20;99.90
19085;DHT22;9675;51.538;6.728;2022-07-12T15:39:12;33.20;99.90
19085;DHT22;9675;51.538;6.728;2022-07-12T15:41:39;33.20;99.90
19085;DHT22;9675;51.538;6.728;2022-07-12T15:44:07;33.30;99.90
19085;DHT22;9675;51.538;6.728;2022-07-12T15:46:36;33.30;99.90
19085;DHT22;9675;51.538;6.728;2022-07-12T15:49:04;33.30;99.90
19085;DHT22;9675;51.538;6.728;2022-07-12T15:51:33;33.30;99.90
19085;DHT22;9675;51.538;6.728;2022-07-12T15:54:18;33.40;99.90
19085;DHT22;9675;51.538;6.728;2022-07-12T15:56:45;33.40;99.90
19085;DHT22;9675;51.538;6.728;2022-07-12T15:59:12;33.30;99.90